Saint-Fulgence, Canada
Current Conditions -  °F | °C
As of 5:00 PM on Friday 24 Oct 2014 (Local Time) from CYBG Reporting Station
Broken Clouds Broken Clouds  
Wind Chill: 54°   Ceiling: 21000
Heat Index: 54°   Visibility: 25mi
Dew Point: 21°   Wind: 0mph
Humidity: 28%   Direction: NA
Pressure: 29.82"   Gusts: NA
Location:  48.45°N, 70.9°W
Report Text: CYBG 242100Z 00000KT 25SM BKN210 BKN240 12/M06 A2982 RMK CI5CI1 SLP104
Loading
Personal Weather Stations






























Interactive Weather Map
Tropical Storm Tracking
New forecast layout! Learn more

10-Day Weather Forecast

Advertisements
Track Severe Weather on mobile